Crawford, Colorado
Current Conditions -  °F | °C
As of 5:53 PM on Tuesday 21 Oct 2014 (Local Time) from KMTJ Reporting Station
Broken Clouds Broken Clouds  
Wind Chill: 61°   Ceiling: 7000
Heat Index: 61°   Visibility: 10mi
Dew Point: 45°   Wind: 7mph
Humidity: 56%   Direction: 120°ESE
Pressure: 30.03"   Gusts: NA
Location:  38.7°N, 107.61°W
Report Text: KMTJ 212353Z AUTO 12006KT 10SM BKN070 16/07 A3003 RMK AO2 SLP115 60000 T01610072 10189 20156 56012
Loading
Personal Weather Stations






























Interactive Weather Map
Tropical Storm Tracking
New forecast layout! Learn more

10-Day Weather Forecast

Advertisements
Track Severe Weather on mobile